createdAt,value
2023-05-16T00:02:56.786Z,86.90
2023-05-16T00:05:59.704Z,86.40
2023-05-16T00:09:02.070Z,86.50
2023-05-16T00:12:04.883Z,86.50
2023-05-16T00:15:09.042Z,86.60
2023-05-16T00:18:15.092Z,86.70
2023-05-16T00:21:17.488Z,86.60
2023-05-16T00:24:19.805Z,86.70
2023-05-16T00:27:22.441Z,86.60
2023-05-16T00:30:25.055Z,86.60
2023-05-16T00:33:27.759Z,86.50
2023-05-16T00:36:31.897Z,86.60
2023-05-16T00:39:34.150Z,86.60
2023-05-16T00:42:36.536Z,86.60
2023-05-16T00:45:39.550Z,86.60
2023-05-16T00:48:42.258Z,86.60
2023-05-16T00:51:44.612Z,87.30
2023-05-16T00:54:47.129Z,86.60
2023-05-16T00:57:49.570Z,86.60
2023-05-16T01:00:51.901Z,86.60
2023-05-16T01:03:54.816Z,86.70
2023-05-16T01:06:57.511Z,86.60
2023-05-16T01:10:00.282Z,86.70
2023-05-16T01:13:12.109Z,86.60
2023-05-16T01:16:22.651Z,86.60
2023-05-16T01:19:49.141Z,87.30
2023-05-16T01:23:05.877Z,86.60
2023-05-16T01:26:30.501Z,86.60
2023-05-16T01:29:33.031Z,86.70
2023-05-16T01:32:35.809Z,86.70
2023-05-16T01:35:56.440Z,86.80
2023-05-16T01:39:27.321Z,86.80
2023-05-16T01:42:33.337Z,86.80
2023-05-16T01:45:41.742Z,86.80
2023-05-16T01:49:18.668Z,86.80
2023-05-16T01:52:29.085Z,86.80
2023-05-16T01:55:48.484Z,86.80
2023-05-16T01:58:52.904Z,86.90
2023-05-16T02:01:57.543Z,86.90
2023-05-16T02:04:59.814Z,86.90
2023-05-16T02:08:02.308Z,86.90
2023-05-16T02:11:04.568Z,86.90
2023-05-16T02:14:06.813Z,86.90
2023-05-16T02:17:09.497Z,87.00
2023-05-16T02:20:13.287Z,86.90
2023-05-16T02:23:15.626Z,87.00
2023-05-16T02:26:17.893Z,87.00
2023-05-16T02:29:20.144Z,86.90
2023-05-16T02:32:22.648Z,87.00
2023-05-16T02:35:25.203Z,87.00
2023-05-16T02:38:27.658Z,87.00
2023-05-16T02:41:32.041Z,87.00
2023-05-16T02:44:34.441Z,87.00
2023-05-16T02:47:36.773Z,87.60
2023-05-16T02:50:40.520Z,86.90
2023-05-16T02:53:42.888Z,87.10
2023-05-16T02:56:45.196Z,87.00
2023-05-16T02:59:47.586Z,87.00
2023-05-16T03:02:49.970Z,87.00
2023-05-16T03:05:52.447Z,87.00
2023-05-16T03:08:54.787Z,87.00
2023-05-16T03:11:57.148Z,86.90
2023-05-16T03:14:59.448Z,86.90
2023-05-16T03:18:01.787Z,86.90
2023-05-16T03:21:05.737Z,86.90
2023-05-16T03:24:08.610Z,86.90
2023-05-16T03:27:11.223Z,86.90
2023-05-16T03:30:13.874Z,86.90
2023-05-16T03:33:16.471Z,86.90
2023-05-16T03:36:18.846Z,86.90
2023-05-16T03:39:21.400Z,86.80
2023-05-16T03:42:23.879Z,86.80
2023-05-16T03:45:26.424Z,86.80
2023-05-16T03:48:29.190Z,86.70
2023-05-16T03:51:32.015Z,86.80
2023-05-16T03:54:34.302Z,86.70
2023-05-16T03:57:38.567Z,86.70
2023-05-16T04:00:40.872Z,86.60
2023-05-16T04:03:43.166Z,86.60
2023-05-16T04:06:45.614Z,86.50
2023-05-16T04:09:47.932Z,86.50
2023-05-16T04:12:50.172Z,86.50
2023-05-16T04:15:52.488Z,86.50
2023-05-16T04:18:54.780Z,86.40
2023-05-16T04:21:57.320Z,86.50
2023-05-16T04:24:59.675Z,86.30
2023-05-16T04:28:01.913Z,86.30
2023-05-16T04:31:04.345Z,86.20
2023-05-16T04:34:06.656Z,86.30
2023-05-16T04:37:09.660Z,86.20
2023-05-16T04:40:13.226Z,86.20
2023-05-16T04:43:15.619Z,86.10
2023-05-16T04:46:18.037Z,86.20
2023-05-16T04:49:20.796Z,86.10
2023-05-16T04:52:23.146Z,86.00
2023-05-16T04:55:25.783Z,85.90
2023-05-16T04:58:28.336Z,86.00
2023-05-16T05:01:31.106Z,86.00
2023-05-16T05:04:33.690Z,86.10
2023-05-16T05:07:36.251Z,86.00
2023-05-16T05:10:38.581Z,86.00
2023-05-16T05:13:40.977Z,86.00
2023-05-16T05:16:43.251Z,86.00
2023-05-16T05:19:45.800Z,86.10
2023-05-16T05:22:48.104Z,86.00
2023-05-16T05:25:50.679Z,86.00
2023-05-16T05:29:04.731Z,86.10
2023-05-16T05:32:08.958Z,86.10
2023-05-16T05:35:11.436Z,86.20
2023-05-16T05:38:13.806Z,86.20
2023-05-16T05:41:16.211Z,86.10
2023-05-16T05:44:18.488Z,86.10
2023-05-16T05:47:20.844Z,86.20
2023-05-16T05:50:23.202Z,86.30
2023-05-16T05:53:25.581Z,86.20
2023-05-16T05:56:28.099Z,86.30
2023-05-16T05:59:30.726Z,86.30
2023-05-16T06:02:41.122Z,86.50
2023-05-16T06:05:43.700Z,86.50
2023-05-16T06:08:46.255Z,86.50
2023-05-16T06:11:48.942Z,86.60
2023-05-16T06:14:51.455Z,86.60
2023-05-16T06:17:53.808Z,86.60
2023-05-16T06:20:56.306Z,86.70
2023-05-16T06:23:59.034Z,86.70
2023-05-16T06:27:01.256Z,86.80
2023-05-16T06:30:04.207Z,86.90
2023-05-16T06:33:07.299Z,86.90
2023-05-16T06:36:09.598Z,87.00
2023-05-16T06:39:11.934Z,87.00
2023-05-16T06:42:14.302Z,87.10
2023-05-16T06:45:17.324Z,87.20
2023-05-16T06:48:19.950Z,87.30
2023-05-16T06:51:22.146Z,87.40
2023-05-16T06:54:24.427Z,87.50
2023-05-16T06:57:26.805Z,87.60
2023-05-16T07:00:29.097Z,87.70
2023-05-16T07:03:32.405Z,87.60
2023-05-16T07:06:34.820Z,87.70
2023-05-16T07:09:37.286Z,87.80
2023-05-16T07:12:42.126Z,87.80
2023-05-16T07:15:44.549Z,87.80
2023-05-16T07:18:46.810Z,87.90
2023-05-16T07:21:49.260Z,87.90
2023-05-16T07:24:53.440Z,87.90
2023-05-16T07:27:55.923Z,88.00
2023-05-16T07:30:59.049Z,87.90
2023-05-16T07:34:01.558Z,88.00
2023-05-16T07:37:04.799Z,87.90
2023-05-16T07:40:08.416Z,87.90
2023-05-16T07:43:11.062Z,88.00
2023-05-16T07:46:14.549Z,87.90
2023-05-16T07:49:16.941Z,87.90
2023-05-16T07:52:19.472Z,87.90
2023-05-16T07:55:22.461Z,87.80
2023-05-16T07:58:24.854Z,87.70
2023-05-16T08:01:27.183Z,87.70
2023-05-16T08:04:29.994Z,87.70
2023-05-16T08:07:32.499Z,87.70
2023-05-16T08:10:35.015Z,87.70
2023-05-16T08:13:37.423Z,87.70
2023-05-16T08:16:39.929Z,87.70
2023-05-16T08:19:42.367Z,87.70
2023-05-16T08:22:44.695Z,87.70
2023-05-16T08:25:47.324Z,87.80
2023-05-16T08:28:50.258Z,87.80
2023-05-16T08:31:52.745Z,87.90
2023-05-16T08:34:55.070Z,87.80
2023-05-16T08:37:57.926Z,87.90
2023-05-16T08:41:00.229Z,87.90
2023-05-16T08:44:02.564Z,87.90
2023-05-16T08:47:22.235Z,87.90
2023-05-16T08:50:26.066Z,88.00
2023-05-16T08:53:36.211Z,88.00
2023-05-16T08:56:39.654Z,88.00
2023-05-16T08:59:42.851Z,88.20
2023-05-16T09:02:46.136Z,88.20
2023-05-16T09:05:50.367Z,88.30
2023-05-16T09:08:56.764Z,88.30
2023-05-16T09:11:59.163Z,88.50
2023-05-16T09:15:03.989Z,88.50
2023-05-16T09:18:14.303Z,88.50
2023-05-16T09:21:17.473Z,88.50
2023-05-16T09:24:26.579Z,88.40
2023-05-16T09:27:31.658Z,88.50
2023-05-16T09:30:35.264Z,88.60
2023-05-16T09:33:37.681Z,88.60
2023-05-16T09:36:42.128Z,88.60
2023-05-16T09:39:55.131Z,88.50
2023-05-16T09:43:08.146Z,88.50
2023-05-16T09:46:15.217Z,88.50
2023-05-16T09:49:17.864Z,88.40
2023-05-16T09:52:20.496Z,88.30
2023-05-16T09:55:23.708Z,88.40
2023-05-16T09:58:32.796Z,88.40
2023-05-16T10:01:35.293Z,88.40
2023-05-16T10:04:38.603Z,88.50
2023-05-16T10:07:42.996Z,88.40
2023-05-16T10:10:46.700Z,88.40
2023-05-16T10:13:53.532Z,88.40
2023-05-16T10:16:57.901Z,88.40
2023-05-16T10:20:07.550Z,88.30
2023-05-16T10:23:16.625Z,88.20
2023-05-16T10:26:21.632Z,88.20
2023-05-16T10:29:26.103Z,88.20
2023-05-16T10:32:28.872Z,88.20
2023-05-16T10:35:33.304Z,88.20
2023-05-16T10:38:36.742Z,88.20
2023-05-16T10:41:39.517Z,88.20
2023-05-16T10:44:46.381Z,88.20
2023-05-16T10:48:00.560Z,88.20
2023-05-16T10:51:04.545Z,88.90
2023-05-16T10:54:10.215Z,88.10
2023-05-16T10:57:20.170Z,88.10
2023-05-16T11:00:23.265Z,88.10
2023-05-16T11:03:25.740Z,88.00
2023-05-16T11:06:29.264Z,87.90
2023-05-16T11:09:31.959Z,87.90
2023-05-16T11:12:54.097Z,87.90
2023-05-16T11:16:28.943Z,87.90
2023-05-16T11:19:51.444Z,87.90
2023-05-16T11:23:22.932Z,87.70
2023-05-16T11:26:25.557Z,87.80
2023-05-16T11:29:31.512Z,87.70
2023-05-16T11:32:39.124Z,87.70
2023-05-16T11:35:42.659Z,87.50
2023-05-16T11:38:45.047Z,87.50
2023-05-16T11:41:48.883Z,87.50
2023-05-16T11:44:51.389Z,87.50
2023-05-16T11:47:53.795Z,87.40
2023-05-16T11:50:56.222Z,87.70
2023-05-16T11:53:58.486Z,87.30
2023-05-16T11:57:02.180Z,87.30
2023-05-16T12:00:14.260Z,87.20
2023-05-16T12:03:16.926Z,87.30
2023-05-16T12:06:19.336Z,87.20
2023-05-16T12:09:21.827Z,87.20
2023-05-16T12:12:24.167Z,87.20
2023-05-16T12:15:27.039Z,87.20
2023-05-16T12:18:29.757Z,87.10
2023-05-16T12:21:32.870Z,87.10
2023-05-16T12:24:35.288Z,87.10
2023-05-16T12:27:39.400Z,87.10
2023-05-16T12:30:44.869Z,87.10
2023-05-16T12:33:47.387Z,87.20
2023-05-16T12:36:54.601Z,87.20
2023-05-16T12:40:04.459Z,87.10
2023-05-16T12:43:20.702Z,87.20
2023-05-16T12:46:28.262Z,87.30
2023-05-16T12:49:33.374Z,87.30
2023-05-16T12:52:36.072Z,87.30
2023-05-16T12:55:38.518Z,87.40
2023-05-16T12:58:41.554Z,87.40
2023-05-16T13:01:46.068Z,87.40
2023-05-16T13:04:48.539Z,87.50
2023-05-16T13:07:51.823Z,87.50
2023-05-16T13:10:54.077Z,87.50
2023-05-16T13:13:56.538Z,87.50
2023-05-16T13:16:58.879Z,87.50
2023-05-16T13:20:02.139Z,87.60
2023-05-16T13:23:05.507Z,87.60
2023-05-16T13:26:07.816Z,87.70
2023-05-16T13:29:11.534Z,87.60
2023-05-16T13:32:13.994Z,87.60
2023-05-16T13:35:16.388Z,87.60
2023-05-16T13:38:19.096Z,87.60
2023-05-16T13:41:22.287Z,87.60
2023-05-16T13:44:24.656Z,87.70
2023-05-16T13:47:27.053Z,87.60
2023-05-16T13:50:33.093Z,87.60
2023-05-16T13:53:36.168Z,87.70
2023-05-16T13:56:38.556Z,87.60
2023-05-16T14:02:46.187Z,87.40
2023-05-16T14:05:48.784Z,87.30
2023-05-16T14:08:51.001Z,87.30
2023-05-16T14:11:53.595Z,87.00
2023-05-16T14:14:56.181Z,86.80
2023-05-16T14:17:59.709Z,87.70
2023-05-16T14:21:02.546Z,86.80
2023-05-16T14:24:05.080Z,86.80
2023-05-16T14:27:07.358Z,86.70
2023-05-16T14:30:10.167Z,86.60
2023-05-16T14:33:12.522Z,86.60
2023-05-16T14:36:15.017Z,86.50
2023-05-16T14:39:17.837Z,86.50
2023-05-16T14:42:20.110Z,86.40
2023-05-16T14:45:22.503Z,86.20
2023-05-16T14:48:24.738Z,86.30
2023-05-16T14:51:27.033Z,86.70
2023-05-16T14:54:29.420Z,86.10
2023-05-16T14:57:32.048Z,86.10
2023-05-16T15:00:34.603Z,86.10
2023-05-16T15:03:53.770Z,85.90
2023-05-16T15:06:57.935Z,86.00
2023-05-16T15:10:00.382Z,85.80
2023-05-16T15:13:03.007Z,85.60
2023-05-16T15:16:06.003Z,85.60
2023-05-16T15:19:08.250Z,85.60
2023-05-16T15:22:11.200Z,85.50
2023-05-16T15:25:13.773Z,85.60
2023-05-16T15:28:16.818Z,85.60
2023-05-16T15:31:19.126Z,85.70
2023-05-16T15:34:21.384Z,85.60
2023-05-16T15:37:23.833Z,85.60
2023-05-16T15:40:27.306Z,85.50
2023-05-16T15:43:29.927Z,85.50
2023-05-16T15:46:33.564Z,85.30
2023-05-16T15:49:35.868Z,85.20
2023-05-16T15:52:38.356Z,85.30
2023-05-16T15:55:40.773Z,85.20
2023-05-16T15:58:46.905Z,85.30
2023-05-16T16:01:49.351Z,85.40
2023-05-16T16:04:52.166Z,85.30
2023-05-16T16:07:54.462Z,85.20
2023-05-16T16:10:56.877Z,85.10
2023-05-16T16:13:59.159Z,85.20
2023-05-16T16:17:01.448Z,85.10
2023-05-16T16:20:04.219Z,85.10
2023-05-16T16:23:06.623Z,85.00
2023-05-16T16:26:08.989Z,85.10
2023-05-16T16:29:11.315Z,85.00
2023-05-16T16:32:13.581Z,85.00
2023-05-16T16:35:16.126Z,85.00
2023-05-16T16:38:19.355Z,85.10
2023-05-16T16:41:21.772Z,85.00
2023-05-16T16:44:24.074Z,85.10
2023-05-16T16:47:26.579Z,85.00
2023-05-16T16:50:29.064Z,85.10
2023-05-16T16:53:32.558Z,85.00
2023-05-16T16:56:35.703Z,85.10
2023-05-16T16:59:38.060Z,85.10
2023-05-16T17:02:40.417Z,85.10
2023-05-16T17:05:43.360Z,85.20
2023-05-16T17:08:46.562Z,85.30
2023-05-16T17:11:49.105Z,85.30
2023-05-16T17:14:52.013Z,85.30
2023-05-16T17:17:54.722Z,85.30
2023-05-16T17:20:57.258Z,85.40
2023-05-16T17:23:59.620Z,85.60
2023-05-16T17:27:02.071Z,85.50
2023-05-16T17:30:05.828Z,85.50
2023-05-16T17:33:09.617Z,85.60
2023-05-16T17:36:12.014Z,85.70
2023-05-16T17:39:15.094Z,85.80
2023-05-16T17:42:17.397Z,85.70
2023-05-16T17:45:19.657Z,85.80
2023-05-16T17:48:21.949Z,85.90
2023-05-16T17:51:24.189Z,85.90
2023-05-16T17:54:30.744Z,86.00
2023-05-16T17:57:34.406Z,86.00
2023-05-16T18:00:36.727Z,86.10
2023-05-16T18:03:41.546Z,86.10
2023-05-16T18:06:44.361Z,86.30
2023-05-16T18:09:46.940Z,86.20
2023-05-16T18:12:49.400Z,86.20
2023-05-16T18:15:51.846Z,86.20
2023-05-16T18:18:54.830Z,86.30
2023-05-16T18:21:58.712Z,86.30
2023-05-16T18:25:01.625Z,86.40
2023-05-16T18:28:04.522Z,86.30
2023-05-16T18:31:07.176Z,86.30
2023-05-16T18:34:10.523Z,86.30
2023-05-16T18:37:12.901Z,86.40
2023-05-16T18:40:18.612Z,86.50
2023-05-16T18:43:20.878Z,86.50
2023-05-16T18:46:23.139Z,86.50
2023-05-16T18:49:26.216Z,86.60
2023-05-16T18:52:28.662Z,86.50
2023-05-16T18:55:31.482Z,86.70
2023-05-16T18:58:33.839Z,86.60
2023-05-16T19:01:36.253Z,86.70
2023-05-16T19:04:38.698Z,86.70
2023-05-16T19:07:41.811Z,86.70
2023-05-16T19:10:44.294Z,86.70
2023-05-16T19:13:47.406Z,86.70
2023-05-16T19:16:49.722Z,86.70
2023-05-16T19:19:52.353Z,86.70
2023-05-16T19:22:54.787Z,87.40
2023-05-16T19:25:57.460Z,86.80
2023-05-16T19:29:00.602Z,86.70
2023-05-16T19:32:04.891Z,86.70
2023-05-16T19:35:07.778Z,86.80
2023-05-16T19:38:10.100Z,86.80
2023-05-16T19:41:12.400Z,86.80
2023-05-16T19:44:14.696Z,86.80
2023-05-16T19:47:17.055Z,86.90
2023-05-16T19:50:19.610Z,86.90
2023-05-16T19:53:22.432Z,86.80
2023-05-16T19:56:24.775Z,86.90
2023-05-16T19:59:27.227Z,87.00
2023-05-16T20:02:29.555Z,87.10
2023-05-16T20:05:31.916Z,87.00
2023-05-16T20:08:34.255Z,87.00
2023-05-16T20:11:36.834Z,87.10
2023-05-16T20:14:39.164Z,87.20
2023-05-16T20:17:41.690Z,87.10
2023-05-16T20:20:44.124Z,87.10
2023-05-16T20:23:46.407Z,87.10
2023-05-16T20:26:48.774Z,87.20
2023-05-16T20:30:11.094Z,87.30
2023-05-16T20:33:13.791Z,87.30
2023-05-16T20:36:16.397Z,87.30
2023-05-16T20:39:18.676Z,87.40
2023-05-16T20:42:21.669Z,87.40
2023-05-16T20:45:27.365Z,87.50
2023-05-16T20:48:29.899Z,87.40
2023-05-16T20:51:32.412Z,87.50
2023-05-16T20:54:35.336Z,87.50
2023-05-16T20:57:37.684Z,87.50
2023-05-16T21:00:40.060Z,87.50
2023-05-16T21:03:42.487Z,87.60
2023-05-16T21:06:45.423Z,87.50
2023-05-16T21:09:48.464Z,87.70
2023-05-16T21:12:50.854Z,87.70
2023-05-16T21:15:53.151Z,87.80
2023-05-16T21:18:55.621Z,87.80
2023-05-16T21:21:58.022Z,87.70
2023-05-16T21:25:00.402Z,87.90
2023-05-16T21:28:03.649Z,87.90
2023-05-16T21:31:06.403Z,87.90
2023-05-16T21:34:10.164Z,87.90
2023-05-16T21:37:13.045Z,88.00
2023-05-16T21:40:19.267Z,88.10
2023-05-16T21:43:21.614Z,88.10
2023-05-16T21:46:23.875Z,88.00
2023-05-16T21:49:26.294Z,88.00
2023-05-16T21:52:28.677Z,88.00
2023-05-16T21:55:30.999Z,88.10
2023-05-16T21:58:33.353Z,88.10
2023-05-16T22:01:35.797Z,88.10
2023-05-16T22:04:38.216Z,88.20
2023-05-16T22:07:40.909Z,88.10
2023-05-16T22:10:43.258Z,88.20
2023-05-16T22:13:45.723Z,88.20
2023-05-16T22:16:48.068Z,88.20
2023-05-16T22:19:50.523Z,88.20
2023-05-16T22:22:52.915Z,88.20
2023-05-16T22:25:55.364Z,88.40
2023-05-16T22:28:57.697Z,88.30
2023-05-16T22:32:00.061Z,88.40
2023-05-16T22:35:02.484Z,88.40
2023-05-16T22:38:05.728Z,88.40
2023-05-16T22:41:07.975Z,88.40
2023-05-16T22:44:10.239Z,88.50
2023-05-16T22:47:12.551Z,88.50
2023-05-16T22:50:14.823Z,88.60
2023-05-16T22:53:17.156Z,88.50
2023-05-16T22:56:19.419Z,88.60
2023-05-16T22:59:21.853Z,88.50
2023-05-16T23:02:24.120Z,88.50
2023-05-16T23:05:26.643Z,88.60
2023-05-16T23:08:28.971Z,88.60
2023-05-16T23:11:32.211Z,88.60
2023-05-16T23:14:34.611Z,88.60
2023-05-16T23:17:38.547Z,88.70
2023-05-16T23:20:41.681Z,88.80
2023-05-16T23:23:43.941Z,88.70
2023-05-16T23:26:46.327Z,88.80
2023-05-16T23:29:48.740Z,88.80
2023-05-16T23:32:54.793Z,88.70
2023-05-16T23:35:57.251Z,88.80
2023-05-16T23:38:59.702Z,88.80
2023-05-16T23:42:02.169Z,88.90
2023-05-16T23:45:05.083Z,88.90
2023-05-16T23:48:07.632Z,88.90
2023-05-16T23:51:10.253Z,88.90
2023-05-16T23:54:12.471Z,89.00
2023-05-16T23:57:14.699Z,89.00
